Welcome to the New NWS' Forecast!
Most changes are behind the scenes, but click here for differences you might notice.

Terminal Aerodrome Forecast (TAF)

Issued by National Weather Service (NWS)

                            
248 
FTUS42 KKEY 150919 AAA
TAFMTH
TAF AMD
KMTH 150919Z 1509/1606 10006KT P6SM VCSH FEW025 SCT250
     FM151500 12012KT P6SM VCTS SCT025CB SCT110 BKN150
     FM152100 12012KT P6SM VCSH SCT025 BKN150=